sensor_id;sensor_type;location;lat;lon;timestamp;P1;durP1;ratioP1;P2;durP2;ratioP2
22289;SDS011;11313;50.116;8.424;2023-04-23T00:01:22;660.60;;;614.15;;
22289;SDS011;11313;50.116;8.424;2023-04-23T00:03:51;648.13;;;603.00;;
22289;SDS011;11313;50.116;8.424;2023-04-23T00:06:19;660.42;;;614.03;;
22289;SDS011;11313;50.116;8.424;2023-04-23T00:08:46;630.95;;;587.63;;
22289;SDS011;11313;50.116;8.424;2023-04-23T00:11:12;595.63;;;556.00;;
22289;SDS011;11313;50.116;8.424;2023-04-23T00:13:38;628.65;;;585.13;;
22289;SDS011;11313;50.116;8.424;2023-04-23T00:16:04;629.15;;;586.50;;
22289;SDS011;11313;50.116;8.424;2023-04-23T00:18:30;620.63;;;577.92;;
22289;SDS011;11313;50.116;8.424;2023-04-23T00:20:55;672.40;;;625.47;;
22289;SDS011;11313;50.116;8.424;2023-04-23T00:23:21;676.25;;;628.47;;
22289;SDS011;11313;50.116;8.424;2023-04-23T00:25:46;693.97;;;645.00;;
22289;SDS011;11313;50.116;8.424;2023-04-23T00:28:12;705.53;;;654.55;;
22289;SDS011;11313;50.116;8.424;2023-04-23T00:30:38;668.70;;;622.42;;
22289;SDS011;11313;50.116;8.424;2023-04-23T00:33:03;672.72;;;625.47;;
22289;SDS011;11313;50.116;8.424;2023-04-23T00:35:29;667.58;;;620.72;;
22289;SDS011;11313;50.116;8.424;2023-04-23T00:37:54;687.08;;;638.53;;
22289;SDS011;11313;50.116;8.424;2023-04-23T00:40:20;723.97;;;671.05;;
22289;SDS011;11313;50.116;8.424;2023-04-23T00:42:47;679.28;;;631.08;;
22289;SDS011;11313;50.116;8.424;2023-04-23T00:45:16;651.80;;;606.92;;
22289;SDS011;11313;50.116;8.424;2023-04-23T00:47:41;621.85;;;579.90;;
22289;SDS011;11313;50.116;8.424;2023-04-23T00:50:07;660.03;;;614.03;;
22289;SDS011;11313;50.116;8.424;2023-04-23T00:52:33;634.60;;;591.15;;
22289;SDS011;11313;50.116;8.424;2023-04-23T00:54:59;534.70;;;500.25;;
22289;SDS011;11313;50.116;8.424;2023-04-23T00:57:25;464.63;;;435.33;;
22289;SDS011;11313;50.116;8.424;2023-04-23T00:59:51;546.70;;;510.10;;
22289;SDS011;11313;50.116;8.424;2023-04-23T01:02:19;485.25;;;454.73;;
22289;SDS011;11313;50.116;8.424;2023-04-23T01:04:45;514.67;;;482.38;;
22289;SDS011;11313;50.116;8.424;2023-04-23T01:07:15;470.00;;;440.63;;
22289;SDS011;11313;50.116;8.424;2023-04-23T01:09:40;530.65;;;496.50;;
22289;SDS011;11313;50.116;8.424;2023-04-23T01:12:07;575.10;;;536.78;;
22289;SDS011;11313;50.116;8.424;2023-04-23T01:14:35;698.42;;;647.58;;
22289;SDS011;11313;50.116;8.424;2023-04-23T01:17:01;725.22;;;671.85;;
22289;SDS011;11313;50.116;8.424;2023-04-23T01:19:27;644.08;;;598.45;;
22289;SDS011;11313;50.116;8.424;2023-04-23T01:21:53;601.78;;;561.60;;
22289;SDS011;11313;50.116;8.424;2023-04-23T01:24:19;606.45;;;565.80;;
22289;SDS011;11313;50.116;8.424;2023-04-23T01:26:45;579.97;;;541.22;;
22289;SDS011;11313;50.116;8.424;2023-04-23T01:29:11;511.73;;;478.83;;
22289;SDS011;11313;50.116;8.424;2023-04-23T01:31:37;573.72;;;535.20;;
22289;SDS011;11313;50.116;8.424;2023-04-23T01:34:04;615.15;;;573.65;;
22289;SDS011;11313;50.116;8.424;2023-04-23T01:36:30;571.15;;;533.85;;
22289;SDS011;11313;50.116;8.424;2023-04-23T01:38:57;584.65;;;546.38;;
22289;SDS011;11313;50.116;8.424;2023-04-23T01:41:22;664.22;;;617.17;;
22289;SDS011;11313;50.116;8.424;2023-04-23T01:43:48;513.97;;;481.15;;
22289;SDS011;11313;50.116;8.424;2023-04-23T01:46:13;543.10;;;508.25;;
22289;SDS011;11313;50.116;8.424;2023-04-23T01:48:39;511.15;;;477.90;;
22289;SDS011;11313;50.116;8.424;2023-04-23T01:51:05;551.20;;;515.28;;
22289;SDS011;11313;50.116;8.424;2023-04-23T01:53:30;564.40;;;527.78;;
22289;SDS011;11313;50.116;8.424;2023-04-23T01:55:56;546.47;;;511.17;;
22289;SDS011;11313;50.116;8.424;2023-04-23T01:58:22;554.88;;;519.08;;
22289;SDS011;11313;50.116;8.424;2023-04-23T02:00:48;516.35;;;483.92;;
22289;SDS011;11313;50.116;8.424;2023-04-23T02:03:14;520.65;;;487.77;;
22289;SDS011;11313;50.116;8.424;2023-04-23T02:05:41;491.88;;;460.70;;
22289;SDS011;11313;50.116;8.424;2023-04-23T02:08:06;554.90;;;518.90;;
22289;SDS011;11313;50.116;8.424;2023-04-23T02:10:32;608.08;;;567.58;;
22289;SDS011;11313;50.116;8.424;2023-04-23T02:12:58;698.67;;;647.30;;
22289;SDS011;11313;50.116;8.424;2023-04-23T02:15:24;759.33;;;703.58;;
22289;SDS011;11313;50.116;8.424;2023-04-23T02:17:49;720.00;;;667.42;;
22289;SDS011;11313;50.116;8.424;2023-04-23T02:20:16;730.83;;;677.13;;
22289;SDS011;11313;50.116;8.424;2023-04-23T02:22:42;528.22;;;493.80;;
22289;SDS011;11313;50.116;8.424;2023-04-23T02:25:08;476.38;;;445.98;;
22289;SDS011;11313;50.116;8.424;2023-04-23T02:27:34;494.67;;;463.67;;
22289;SDS011;11313;50.116;8.424;2023-04-23T02:30:00;544.35;;;508.52;;
22289;SDS011;11313;50.116;8.424;2023-04-23T02:32:26;579.83;;;540.20;;
22289;SDS011;11313;50.116;8.424;2023-04-23T02:34:51;521.38;;;487.27;;
22289;SDS011;11313;50.116;8.424;2023-04-23T02:37:17;620.25;;;577.40;;
22289;SDS011;11313;50.116;8.424;2023-04-23T02:39:43;608.95;;;566.80;;
22289;SDS011;11313;50.116;8.424;2023-04-23T02:42:09;614.45;;;571.92;;
22289;SDS011;11313;50.116;8.424;2023-04-23T02:44:35;711.22;;;660.17;;
22289;SDS011;11313;50.116;8.424;2023-04-23T02:47:01;566.65;;;527.47;;
22289;SDS011;11313;50.116;8.424;2023-04-23T02:49:26;450.50;;;422.42;;
22289;SDS011;11313;50.116;8.424;2023-04-23T02:51:52;475.15;;;444.13;;
22289;SDS011;11313;50.116;8.424;2023-04-23T02:54:17;443.85;;;415.77;;
22289;SDS011;11313;50.116;8.424;2023-04-23T02:56:43;424.58;;;398.15;;
22289;SDS011;11313;50.116;8.424;2023-04-23T02:59:08;435.33;;;407.70;;
22289;SDS011;11313;50.116;8.424;2023-04-23T03:01:34;430.08;;;402.33;;
22289;SDS011;11313;50.116;8.424;2023-04-23T03:04:00;423.80;;;397.80;;
22289;SDS011;11313;50.116;8.424;2023-04-23T03:06:25;406.90;;;382.02;;
22289;SDS011;11313;50.116;8.424;2023-04-23T03:08:51;381.52;;;358.17;;
22289;SDS011;11313;50.116;8.424;2023-04-23T03:11:16;410.17;;;384.90;;
22289;SDS011;11313;50.116;8.424;2023-04-23T03:13:42;428.42;;;402.00;;
22289;SDS011;11313;50.116;8.424;2023-04-23T03:16:08;366.33;;;344.42;;
22289;SDS011;11313;50.116;8.424;2023-04-23T03:18:33;426.27;;;400.17;;
22289;SDS011;11313;50.116;8.424;2023-04-23T03:20:59;394.15;;;369.60;;
22289;SDS011;11313;50.116;8.424;2023-04-23T03:23:25;372.77;;;350.48;;
22289;SDS011;11313;50.116;8.424;2023-04-23T03:25:50;437.35;;;410.45;;
22289;SDS011;11313;50.116;8.424;2023-04-23T03:28:18;400.38;;;375.95;;
22289;SDS011;11313;50.116;8.424;2023-04-23T03:30:43;455.88;;;427.50;;
22289;SDS011;11313;50.116;8.424;2023-04-23T03:33:09;393.05;;;369.17;;
22289;SDS011;11313;50.116;8.424;2023-04-23T03:35:34;375.58;;;352.58;;
22289;SDS011;11313;50.116;8.424;2023-04-23T03:38:00;433.48;;;407.00;;
22289;SDS011;11313;50.116;8.424;2023-04-23T03:40:25;376.30;;;353.60;;
22289;SDS011;11313;50.116;8.424;2023-04-23T03:42:51;388.02;;;364.23;;
22289;SDS011;11313;50.116;8.424;2023-04-23T03:45:17;408.10;;;382.90;;
22289;SDS011;11313;50.116;8.424;2023-04-23T03:47:42;381.98;;;358.75;;
22289;SDS011;11313;50.116;8.424;2023-04-23T03:50:08;415.75;;;390.45;;
22289;SDS011;11313;50.116;8.424;2023-04-23T03:52:34;370.60;;;348.50;;
22289;SDS011;11313;50.116;8.424;2023-04-23T03:55:00;390.15;;;366.73;;
22289;SDS011;11313;50.116;8.424;2023-04-23T03:57:25;372.80;;;350.88;;
22289;SDS011;11313;50.116;8.424;2023-04-23T03:59:51;415.83;;;390.45;;
22289;SDS011;11313;50.116;8.424;2023-04-23T04:02:16;360.35;;;338.67;;
22289;SDS011;11313;50.116;8.424;2023-04-23T04:04:43;337.67;;;317.77;;
22289;SDS011;11313;50.116;8.424;2023-04-23T04:07:10;386.08;;;362.50;;
22289;SDS011;11313;50.116;8.424;2023-04-23T04:09:36;432.20;;;405.55;;
22289;SDS011;11313;50.116;8.424;2023-04-23T04:12:02;365.92;;;343.98;;
22289;SDS011;11313;50.116;8.424;2023-04-23T04:14:29;408.95;;;384.20;;
22289;SDS011;11313;50.116;8.424;2023-04-23T04:16:55;370.40;;;348.05;;
22289;SDS011;11313;50.116;8.424;2023-04-23T04:19:21;388.25;;;364.60;;
22289;SDS011;11313;50.116;8.424;2023-04-23T04:21:46;352.70;;;331.75;;
22289;SDS011;11313;50.116;8.424;2023-04-23T04:24:12;363.88;;;342.40;;
22289;SDS011;11313;50.116;8.424;2023-04-23T04:26:38;435.92;;;408.90;;
22289;SDS011;11313;50.116;8.424;2023-04-23T04:29:04;382.88;;;359.88;;
22289;SDS011;11313;50.116;8.424;2023-04-23T04:31:29;352.45;;;331.33;;
22289;SDS011;11313;50.116;8.424;2023-04-23T04:33:56;458.48;;;430.05;;
22289;SDS011;11313;50.116;8.424;2023-04-23T04:36:22;354.17;;;333.15;;
22289;SDS011;11313;50.116;8.424;2023-04-23T04:38:49;424.83;;;398.88;;
22289;SDS011;11313;50.116;8.424;2023-04-23T04:41:15;392.38;;;368.70;;
22289;SDS011;11313;50.116;8.424;2023-04-23T04:43:43;319.42;;;300.60;;
22289;SDS011;11313;50.116;8.424;2023-04-23T04:46:09;360.55;;;338.75;;
22289;SDS011;11313;50.116;8.424;2023-04-23T04:48:35;401.80;;;377.67;;
22289;SDS011;11313;50.116;8.424;2023-04-23T04:51:01;381.58;;;358.60;;
22289;SDS011;11313;50.116;8.424;2023-04-23T04:53:27;372.08;;;349.73;;
22289;SDS011;11313;50.116;8.424;2023-04-23T04:55:52;402.20;;;377.52;;
22289;SDS011;11313;50.116;8.424;2023-04-23T04:58:18;403.30;;;378.75;;
22289;SDS011;11313;50.116;8.424;2023-04-23T05:00:43;416.40;;;391.23;;
22289;SDS011;11313;50.116;8.424;2023-04-23T05:03:10;401.13;;;376.73;;
22289;SDS011;11313;50.116;8.424;2023-04-23T05:05:36;410.33;;;385.55;;
22289;SDS011;11313;50.116;8.424;2023-04-23T05:08:01;518.00;;;484.63;;
22289;SDS011;11313;50.116;8.424;2023-04-23T05:10:27;449.17;;;420.90;;
22289;SDS011;11313;50.116;8.424;2023-04-23T05:12:54;463.55;;;434.50;;
22289;SDS011;11313;50.116;8.424;2023-04-23T05:15:20;385.52;;;362.48;;
22289;SDS011;11313;50.116;8.424;2023-04-23T05:17:46;379.77;;;356.85;;
22289;SDS011;11313;50.116;8.424;2023-04-23T05:20:11;469.92;;;439.08;;
22289;SDS011;11313;50.116;8.424;2023-04-23T05:22:39;526.75;;;491.52;;
22289;SDS011;11313;50.116;8.424;2023-04-23T05:25:06;434.80;;;407.63;;
22289;SDS011;11313;50.116;8.424;2023-04-23T05:27:32;326.55;;;307.10;;
22289;SDS011;11313;50.116;8.424;2023-04-23T05:29:59;470.73;;;440.23;;
22289;SDS011;11313;50.116;8.424;2023-04-23T05:32:26;397.00;;;372.98;;
22289;SDS011;11313;50.116;8.424;2023-04-23T05:34:51;420.38;;;393.65;;
22289;SDS011;11313;50.116;8.424;2023-04-23T05:37:17;443.75;;;416.23;;
22289;SDS011;11313;50.116;8.424;2023-04-23T05:39:42;507.08;;;474.80;;
22289;SDS011;11313;50.116;8.424;2023-04-23T05:42:08;398.77;;;374.20;;
22289;SDS011;11313;50.116;8.424;2023-04-23T05:44:33;425.73;;;399.05;;
22289;SDS011;11313;50.116;8.424;2023-04-23T05:46:59;492.08;;;459.65;;
22289;SDS011;11313;50.116;8.424;2023-04-23T05:49:25;409.70;;;384.80;;
22289;SDS011;11313;50.116;8.424;2023-04-23T05:51:51;396.27;;;370.80;;
22289;SDS011;11313;50.116;8.424;2023-04-23T05:54:16;456.48;;;427.23;;
22289;SDS011;11313;50.116;8.424;2023-04-23T05:56:42;419.83;;;393.40;;
22289;SDS011;11313;50.116;8.424;2023-04-23T05:59:08;411.63;;;385.13;;
22289;SDS011;11313;50.116;8.424;2023-04-23T06:01:34;463.20;;;433.13;;
22289;SDS011;11313;50.116;8.424;2023-04-23T06:03:59;400.65;;;375.20;;
22289;SDS011;11313;50.116;8.424;2023-04-23T06:06:25;428.45;;;401.17;;
22289;SDS011;11313;50.116;8.424;2023-04-23T06:08:51;408.17;;;382.05;;
22289;SDS011;11313;50.116;8.424;2023-04-23T06:11:17;404.98;;;379.30;;
22289;SDS011;11313;50.116;8.424;2023-04-23T06:13:42;367.90;;;345.70;;
22289;SDS011;11313;50.116;8.424;2023-04-23T06:16:09;391.30;;;367.05;;
22289;SDS011;11313;50.116;8.424;2023-04-23T06:18:35;332.10;;;312.17;;
22289;SDS011;11313;50.116;8.424;2023-04-23T06:21:01;419.67;;;393.35;;
22289;SDS011;11313;50.116;8.424;2023-04-23T06:23:28;373.88;;;350.05;;
22289;SDS011;11313;50.116;8.424;2023-04-23T06:25:54;378.77;;;354.13;;
22289;SDS011;11313;50.116;8.424;2023-04-23T06:28:20;292.42;;;274.85;;
22289;SDS011;11313;50.116;8.424;2023-04-23T06:30:45;307.63;;;289.75;;
22289;SDS011;11313;50.116;8.424;2023-04-23T06:33:11;330.45;;;310.17;;
22289;SDS011;11313;50.116;8.424;2023-04-23T06:35:37;362.17;;;339.35;;
22289;SDS011;11313;50.116;8.424;2023-04-23T06:38:02;314.85;;;295.63;;
22289;SDS011;11313;50.116;8.424;2023-04-23T06:40:28;410.25;;;384.38;;
22289;SDS011;11313;50.116;8.424;2023-04-23T06:42:53;376.45;;;352.60;;
22289;SDS011;11313;50.116;8.424;2023-04-23T06:45:19;281.27;;;264.77;;
22289;SDS011;11313;50.116;8.424;2023-04-23T06:47:45;285.83;;;268.95;;
22289;SDS011;11313;50.116;8.424;2023-04-23T06:50:13;362.00;;;338.63;;
22289;SDS011;11313;50.116;8.424;2023-04-23T06:52:38;382.42;;;357.48;;
22289;SDS011;11313;50.116;8.424;2023-04-23T06:55:04;378.83;;;353.90;;
22289;SDS011;11313;50.116;8.424;2023-04-23T06:57:30;443.25;;;413.85;;
22289;SDS011;11313;50.116;8.424;2023-04-23T06:59:56;577.88;;;537.17;;
22289;SDS011;11313;50.116;8.424;2023-04-23T07:02:21;576.55;;;535.67;;
22289;SDS011;11313;50.116;8.424;2023-04-23T07:04:47;547.72;;;510.10;;
22289;SDS011;11313;50.116;8.424;2023-04-23T07:07:12;579.45;;;539.13;;
22289;SDS011;11313;50.116;8.424;2023-04-23T07:09:38;654.28;;;606.42;;
22289;SDS011;11313;50.116;8.424;2023-04-23T07:12:03;610.33;;;566.85;;
22289;SDS011;11313;50.116;8.424;2023-04-23T07:14:29;403.90;;;378.08;;
22289;SDS011;11313;50.116;8.424;2023-04-23T07:16:55;480.58;;;448.15;;
22289;SDS011;11313;50.116;8.424;2023-04-23T07:19:21;400.33;;;374.30;;
22289;SDS011;11313;50.116;8.424;2023-04-23T07:21:46;405.95;;;379.05;;
22289;SDS011;11313;50.116;8.424;2023-04-23T07:24:12;538.65;;;502.15;;
22289;SDS011;11313;50.116;8.424;2023-04-23T07:26:37;466.75;;;435.58;;
22289;SDS011;11313;50.116;8.424;2023-04-23T07:29:03;512.83;;;479.13;;
22289;SDS011;11313;50.116;8.424;2023-04-23T07:31:31;570.92;;;531.35;;
22289;SDS011;11313;50.116;8.424;2023-04-23T07:33:57;570.53;;;531.83;;
22289;SDS011;11313;50.116;8.424;2023-04-23T07:36:22;554.33;;;516.95;;
22289;SDS011;11313;50.116;8.424;2023-04-23T07:38:48;594.60;;;552.38;;
22289;SDS011;11313;50.116;8.424;2023-04-23T07:41:14;598.38;;;556.95;;
22289;SDS011;11313;50.116;8.424;2023-04-23T07:43:41;492.10;;;459.38;;
22289;SDS011;11313;50.116;8.424;2023-04-23T07:46:06;477.23;;;445.88;;
22289;SDS011;11313;50.116;8.424;2023-04-23T07:48:32;487.67;;;455.63;;
22289;SDS011;11313;50.116;8.424;2023-04-23T07:50:58;523.58;;;488.20;;
22289;SDS011;11313;50.116;8.424;2023-04-23T07:53:24;593.17;;;552.03;;
22289;SDS011;11313;50.116;8.424;2023-04-23T07:55:52;577.40;;;537.50;;
22289;SDS011;11313;50.116;8.424;2023-04-23T07:58:21;551.20;;;513.72;;
22289;SDS011;11313;50.116;8.424;2023-04-23T08:00:48;492.13;;;459.48;;
22289;SDS011;11313;50.116;8.424;2023-04-23T08:03:14;499.83;;;466.15;;
22289;SDS011;11313;50.116;8.424;2023-04-23T08:05:39;509.33;;;474.98;;
22289;SDS011;11313;50.116;8.424;2023-04-23T08:08:05;568.10;;;529.00;;
22289;SDS011;11313;50.116;8.424;2023-04-23T08:10:32;411.48;;;385.23;;
22289;SDS011;11313;50.116;8.424;2023-04-23T08:12:58;406.33;;;380.45;;
22289;SDS011;11313;50.116;8.424;2023-04-23T08:15:24;396.13;;;370.45;;
22289;SDS011;11313;50.116;8.424;2023-04-23T08:17:49;463.20;;;432.80;;
22289;SDS011;11313;50.116;8.424;2023-04-23T08:20:15;570.25;;;530.45;;
22289;SDS011;11313;50.116;8.424;2023-04-23T08:22:42;528.67;;;494.08;;
22289;SDS011;11313;50.116;8.424;2023-04-23T08:25:07;548.65;;;511.02;;
22289;SDS011;11313;50.116;8.424;2023-04-23T08:27:33;448.92;;;419.48;;
22289;SDS011;11313;50.116;8.424;2023-04-23T08:29:59;528.60;;;493.15;;
22289;SDS011;11313;50.116;8.424;2023-04-23T08:32:24;525.42;;;489.83;;
22289;SDS011;11313;50.116;8.424;2023-04-23T08:34:50;496.35;;;463.33;;
22289;SDS011;11313;50.116;8.424;2023-04-23T08:37:15;526.83;;;490.73;;
22289;SDS011;11313;50.116;8.424;2023-04-23T08:39:41;561.25;;;522.92;;
22289;SDS011;11313;50.116;8.424;2023-04-23T08:42:10;598.75;;;556.53;;
22289;SDS011;11313;50.116;8.424;2023-04-23T08:44:46;493.13;;;460.48;;
22289;SDS011;11313;50.116;8.424;2023-04-23T08:47:13;660.90;;;613.35;;
22289;SDS011;11313;50.116;8.424;2023-04-23T08:49:42;705.42;;;653.25;;
22289;SDS011;11313;50.116;8.424;2023-04-23T08:54:42;561.10;;;522.50;;
22289;SDS011;11313;50.116;8.424;2023-04-23T08:57:11;627.95;;;581.83;;
22289;SDS011;11313;50.116;8.424;2023-04-23T08:59:37;579.72;;;539.17;;
22289;SDS011;11313;50.116;8.424;2023-04-23T09:02:04;545.38;;;507.95;;
22289;SDS011;11313;50.116;8.424;2023-04-23T09:04:34;564.03;;;525.78;;
22289;SDS011;11313;50.116;8.424;2023-04-23T09:07:00;520.40;;;485.25;;
22289;SDS011;11313;50.116;8.424;2023-04-23T09:09:26;544.20;;;507.80;;
22289;SDS011;11313;50.116;8.424;2023-04-23T09:11:54;422.55;;;395.13;;
22289;SDS011;11313;50.116;8.424;2023-04-23T09:14:21;391.00;;;365.73;;
22289;SDS011;11313;50.116;8.424;2023-04-23T09:16:49;417.80;;;390.45;;
22289;SDS011;11313;50.116;8.424;2023-04-23T09:19:15;401.02;;;375.27;;
22289;SDS011;11313;50.116;8.424;2023-04-23T09:21:42;347.05;;;325.83;;
22289;SDS011;11313;50.116;8.424;2023-04-23T09:24:09;437.92;;;409.92;;
22289;SDS011;11313;50.116;8.424;2023-04-23T09:26:36;413.05;;;386.25;;
22289;SDS011;11313;50.116;8.424;2023-04-23T09:29:12;301.30;;;282.77;;
22289;SDS011;11313;50.116;8.424;2023-04-23T09:31:43;440.40;;;412.05;;
22289;SDS011;11313;50.116;8.424;2023-04-23T09:34:19;388.02;;;363.50;;
22289;SDS011;11313;50.116;8.424;2023-04-23T09:36:47;420.23;;;393.08;;
22289;SDS011;11313;50.116;8.424;2023-04-23T09:39:15;359.27;;;336.08;;
22289;SDS011;11313;50.116;8.424;2023-04-23T09:41:42;317.85;;;298.17;;
22289;SDS011;11313;50.116;8.424;2023-04-23T09:44:10;517.88;;;484.15;;
22289;SDS011;11313;50.116;8.424;2023-04-23T09:46:39;508.27;;;475.50;;
22289;SDS011;11313;50.116;8.424;2023-04-23T09:49:07;492.15;;;460.05;;
22289;SDS011;11313;50.116;8.424;2023-04-23T09:51:37;475.48;;;444.65;;
22289;SDS011;11313;50.116;8.424;2023-04-23T09:54:09;527.92;;;492.83;;
22289;SDS011;11313;50.116;8.424;2023-04-23T09:56:40;483.33;;;452.33;;
22289;SDS011;11313;50.116;8.424;2023-04-23T09:59:23;460.65;;;431.35;;
22289;SDS011;11313;50.116;8.424;2023-04-23T10:01:50;489.23;;;458.17;;
22289;SDS011;11313;50.116;8.424;2023-04-23T10:04:17;437.20;;;409.13;;
22289;SDS011;11313;50.116;8.424;2023-04-23T10:06:45;470.10;;;439.92;;
22289;SDS011;11313;50.116;8.424;2023-04-23T10:09:11;420.45;;;393.85;;
22289;SDS011;11313;50.116;8.424;2023-04-23T10:11:36;433.70;;;405.88;;
22289;SDS011;11313;50.116;8.424;2023-04-23T10:14:03;454.20;;;424.90;;
22289;SDS011;11313;50.116;8.424;2023-04-23T10:16:28;477.02;;;445.92;;
22289;SDS011;11313;50.116;8.424;2023-04-23T10:18:54;441.05;;;412.55;;
22289;SDS011;11313;50.116;8.424;2023-04-23T10:21:24;407.83;;;381.80;;
22289;SDS011;11313;50.116;8.424;2023-04-23T10:23:53;507.00;;;474.20;;
22289;SDS011;11313;50.116;8.424;2023-04-23T10:26:20;415.20;;;388.77;;
22289;SDS011;11313;50.116;8.424;2023-04-23T10:28:48;367.05;;;344.20;;
22289;SDS011;11313;50.116;8.424;2023-04-23T10:31:17;373.80;;;350.45;;
22289;SDS011;11313;50.116;8.424;2023-04-23T10:33:43;276.48;;;259.42;;
22289;SDS011;11313;50.116;8.424;2023-04-23T10:36:11;313.77;;;294.58;;
22289;SDS011;11313;50.116;8.424;2023-04-23T10:38:37;518.30;;;484.48;;
22289;SDS011;11313;50.116;8.424;2023-04-23T10:41:05;413.23;;;387.10;;
22289;SDS011;11313;50.116;8.424;2023-04-23T10:43:32;450.80;;;421.75;;
22289;SDS011;11313;50.116;8.424;2023-04-23T10:45:58;295.23;;;276.95;;
22289;SDS011;11313;50.116;8.424;2023-04-23T10:48:26;502.38;;;469.70;;
22289;SDS011;11313;50.116;8.424;2023-04-23T10:50:58;481.67;;;450.58;;
22289;SDS011;11313;50.116;8.424;2023-04-23T10:53:24;346.92;;;325.60;;
22289;SDS011;11313;50.116;8.424;2023-04-23T10:56:03;518.88;;;485.02;;
22289;SDS011;11313;50.116;8.424;2023-04-23T10:58:48;595.42;;;554.60;;
22289;SDS011;11313;50.116;8.424;2023-04-23T11:01:16;529.00;;;494.00;;
22289;SDS011;11313;50.116;8.424;2023-04-23T11:03:42;514.47;;;481.15;;
22289;SDS011;11313;50.116;8.424;2023-04-23T11:06:07;580.30;;;540.90;;
22289;SDS011;11313;50.116;8.424;2023-04-23T11:08:37;618.97;;;575.60;;
22289;SDS011;11313;50.116;8.424;2023-04-23T11:11:18;521.25;;;486.75;;
22289;SDS011;11313;50.116;8.424;2023-04-23T11:14:10;443.35;;;414.88;;
22289;SDS011;11313;50.116;8.424;2023-04-23T11:16:38;544.85;;;508.73;;
22289;SDS011;11313;50.116;8.424;2023-04-23T11:19:07;560.00;;;522.88;;
22289;SDS011;11313;50.116;8.424;2023-04-23T11:24:31;426.65;;;399.20;;
22289;SDS011;11313;50.116;8.424;2023-04-23T11:26:58;415.42;;;388.80;;
22289;SDS011;11313;50.116;8.424;2023-04-23T11:29:24;435.90;;;408.17;;
22289;SDS011;11313;50.116;8.424;2023-04-23T11:31:51;473.95;;;444.00;;
22289;SDS011;11313;50.116;8.424;2023-04-23T11:34:18;414.05;;;387.38;;
22289;SDS011;11313;50.116;8.424;2023-04-23T11:36:45;413.67;;;387.30;;
22289;SDS011;11313;50.116;8.424;2023-04-23T11:39:12;449.95;;;420.70;;
22289;SDS011;11313;50.116;8.424;2023-04-23T11:41:37;485.42;;;453.58;;
22289;SDS011;11313;50.116;8.424;2023-04-23T11:44:03;578.90;;;539.90;;
22289;SDS011;11313;50.116;8.424;2023-04-23T11:46:29;572.90;;;534.25;;
22289;SDS011;11313;50.116;8.424;2023-04-23T11:48:55;604.08;;;563.03;;
22289;SDS011;11313;50.116;8.424;2023-04-23T11:51:27;558.40;;;521.35;;
22289;SDS011;11313;50.116;8.424;2023-04-23T11:53:53;485.27;;;453.92;;
22289;SDS011;11313;50.116;8.424;2023-04-23T11:56:18;582.15;;;542.83;;
22289;SDS011;11313;50.116;8.424;2023-04-23T11:58:44;531.78;;;495.67;;
22289;SDS011;11313;50.116;8.424;2023-04-23T12:01:10;569.88;;;531.42;;
22289;SDS011;11313;50.116;8.424;2023-04-23T12:03:39;599.65;;;559.00;;
22289;SDS011;11313;50.116;8.424;2023-04-23T12:06:04;585.75;;;546.78;;
22289;SDS011;11313;50.116;8.424;2023-04-23T12:08:31;536.30;;;500.67;;
22289;SDS011;11313;50.116;8.424;2023-04-23T12:11:02;563.63;;;525.80;;
22289;SDS011;11313;50.116;8.424;2023-04-23T12:13:30;511.10;;;477.42;;
22289;SDS011;11313;50.116;8.424;2023-04-23T12:16:00;589.53;;;548.85;;
22289;SDS011;11313;50.116;8.424;2023-04-23T12:18:34;580.20;;;541.30;;
22289;SDS011;11313;50.116;8.424;2023-04-23T12:21:12;619.83;;;577.42;;
22289;SDS011;11313;50.116;8.424;2023-04-23T12:23:39;645.70;;;599.92;;
22289;SDS011;11313;50.116;8.424;2023-04-23T12:26:09;635.22;;;591.33;;
22289;SDS011;11313;50.116;8.424;2023-04-23T12:28:44;632.17;;;587.60;;
22289;SDS011;11313;50.116;8.424;2023-04-23T12:31:24;604.50;;;562.30;;
22289;SDS011;11313;50.116;8.424;2023-04-23T12:36:33;597.65;;;556.70;;
22289;SDS011;11313;50.116;8.424;2023-04-23T12:41:45;585.67;;;545.60;;
22289;SDS011;11313;50.116;8.424;2023-04-23T12:44:10;525.15;;;490.38;;
22289;SDS011;11313;50.116;8.424;2023-04-23T12:46:36;614.55;;;571.63;;
22289;SDS011;11313;50.116;8.424;2023-04-23T12:49:01;574.20;;;534.53;;
22289;SDS011;11313;50.116;8.424;2023-04-23T12:51:27;644.13;;;598.25;;
22289;SDS011;11313;50.116;8.424;2023-04-23T12:53:52;647.85;;;602.42;;
22289;SDS011;11313;50.116;8.424;2023-04-23T12:56:18;593.08;;;552.22;;
22289;SDS011;11313;50.116;8.424;2023-04-23T12:58:44;596.72;;;556.25;;
22289;SDS011;11313;50.116;8.424;2023-04-23T13:01:10;576.50;;;537.30;;
22289;SDS011;11313;50.116;8.424;2023-04-23T13:03:36;603.03;;;561.08;;
22289;SDS011;11313;50.116;8.424;2023-04-23T13:06:02;563.47;;;523.63;;
22289;SDS011;11313;50.116;8.424;2023-04-23T13:08:27;646.50;;;599.22;;
22289;SDS011;11313;50.116;8.424;2023-04-23T13:10:53;592.30;;;552.47;;
22289;SDS011;11313;50.116;8.424;2023-04-23T13:13:18;608.08;;;565.95;;
22289;SDS011;11313;50.116;8.424;2023-04-23T13:15:44;585.95;;;545.75;;
22289;SDS011;11313;50.116;8.424;2023-04-23T13:18:10;600.92;;;559.85;;
22289;SDS011;11313;50.116;8.424;2023-04-23T13:20:35;623.05;;;579.75;;
22289;SDS011;11313;50.116;8.424;2023-04-23T13:23:01;648.30;;;602.17;;
22289;SDS011;11313;50.116;8.424;2023-04-23T13:25:27;581.63;;;541.28;;
22289;SDS011;11313;50.116;8.424;2023-04-23T13:27:53;688.92;;;639.20;;
22289;SDS011;11313;50.116;8.424;2023-04-23T13:30:20;669.65;;;621.72;;
22289;SDS011;11313;50.116;8.424;2023-04-23T13:32:45;591.25;;;550.10;;
22289;SDS011;11313;50.116;8.424;2023-04-23T13:35:11;651.17;;;603.63;;
22289;SDS011;11313;50.116;8.424;2023-04-23T13:37:38;643.75;;;598.50;;
22289;SDS011;11313;50.116;8.424;2023-04-23T13:40:05;595.10;;;553.75;;
22289;SDS011;11313;50.116;8.424;2023-04-23T13:42:31;656.45;;;609.65;;
22289;SDS011;11313;50.116;8.424;2023-04-23T13:44:58;525.17;;;489.25;;
22289;SDS011;11313;50.116;8.424;2023-04-23T13:47:23;586.15;;;545.70;;
22289;SDS011;11313;50.116;8.424;2023-04-23T13:49:51;577.88;;;537.65;;
22289;SDS011;11313;50.116;8.424;2023-04-23T13:52:16;593.47;;;552.92;;
22289;SDS011;11313;50.116;8.424;2023-04-23T13:54:42;550.75;;;513.05;;
22289;SDS011;11313;50.116;8.424;2023-04-23T13:57:07;592.30;;;550.63;;
22289;SDS011;11313;50.116;8.424;2023-04-23T13:59:33;640.38;;;594.75;;
22289;SDS011;11313;50.116;8.424;2023-04-23T14:01:59;564.75;;;526.28;;
22289;SDS011;11313;50.116;8.424;2023-04-23T14:04:24;439.63;;;410.88;;